sensor_id;sensor_type;location;lat;lon;timestamp;pressure;altitude;pressure_sealevel;temperature;humidity
32083;BME280;18597;48.328;7.932;2023-05-09T00:00:17;99774.69;;;15.56;100.00
32083;BME280;18597;48.328;7.932;2023-05-09T00:02:45;99784.72;;;15.46;100.00
32083;BME280;18597;48.328;7.932;2023-05-09T00:05:11;99783.41;;;15.50;100.00
32083;BME280;18597;48.328;7.932;2023-05-09T00:07:37;99778.03;;;15.50;100.00
32083;BME280;18597;48.328;7.932;2023-05-09T00:10:04;99780.56;;;15.51;100.00
32083;BME280;18597;48.328;7.932;2023-05-09T00:12:30;99772.31;;;15.53;100.00
32083;BME280;18597;48.328;7.932;2023-05-09T00:14:56;99769.63;;;15.53;100.00
32083;BME280;18597;48.328;7.932;2023-05-09T00:17:23;99764.06;;;15.72;100.00
32083;BME280;18597;48.328;7.932;2023-05-09T00:19:50;99768.41;;;15.65;100.00
32083;BME280;18597;48.328;7.932;2023-05-09T00:22:16;99759.03;;;15.51;100.00
32083;BME280;18597;48.328;7.932;2023-05-09T00:24:43;99758.38;;;15.58;100.00
32083;BME280;18597;48.328;7.932;2023-05-09T00:27:09;99760.03;;;15.50;100.00
32083;BME280;18597;48.328;7.932;2023-05-09T00:29:35;99751.75;;;15.44;100.00
32083;BME280;18597;48.328;7.932;2023-05-09T00:32:01;99748.25;;;15.51;100.00
32083;BME280;18597;48.328;7.932;2023-05-09T00:34:27;99749.13;;;15.60;100.00
32083;BME280;18597;48.328;7.932;2023-05-09T00:36:53;99746.66;;;15.41;100.00
32083;BME280;18597;48.328;7.932;2023-05-09T00:39:19;99743.13;;;15.40;100.00
32083;BME280;18597;48.328;7.932;2023-05-09T00:41:45;99743.88;;;15.50;100.00
32083;BME280;18597;48.328;7.932;2023-05-09T00:44:11;99735.59;;;15.44;100.00
32083;BME280;18597;48.328;7.932;2023-05-09T00:46:37;99744.56;;;15.52;100.00
32083;BME280;18597;48.328;7.932;2023-05-09T00:49:04;99735.28;;;15.55;100.00
32083;BME280;18597;48.328;7.932;2023-05-09T00:51:30;99735.66;;;15.60;100.00
32083;BME280;18597;48.328;7.932;2023-05-09T00:53:57;99737.31;;;15.53;100.00
32083;BME280;18597;48.328;7.932;2023-05-09T00:56:24;99735.66;;;15.60;100.00
32083;BME280;18597;48.328;7.932;2023-05-09T00:58:49;99733.25;;;15.49;100.00
32083;BME280;18597;48.328;7.932;2023-05-09T01:01:15;99727.84;;;15.49;100.00
32083;BME280;18597;48.328;7.932;2023-05-09T01:03:42;99730.06;;;15.53;100.00
32083;BME280;18597;48.328;7.932;2023-05-09T01:06:24;99724.91;;;15.60;100.00
32083;BME280;18597;48.328;7.932;2023-05-09T01:09:03;99726.06;;;15.58;100.00
32083;BME280;18597;48.328;7.932;2023-05-09T01:11:40;99716.06;;;15.76;100.00
32083;BME280;18597;48.328;7.932;2023-05-09T01:14:24;99716.25;;;15.74;100.00
32083;BME280;18597;48.328;7.932;2023-05-09T01:17:07;99709.47;;;15.70;100.00
32083;BME280;18597;48.328;7.932;2023-05-09T01:22:32;99708.84;;;15.76;100.00
32083;BME280;18597;48.328;7.932;2023-05-09T01:30:27;99708.38;;;15.55;100.00
32083;BME280;18597;48.328;7.932;2023-05-09T01:32:58;99710.69;;;15.42;100.00
32083;BME280;18597;48.328;7.932;2023-05-09T01:35:25;99706.31;;;15.49;100.00
32083;BME280;18597;48.328;7.932;2023-05-09T01:37:55;99708.34;;;15.47;100.00
32083;BME280;18597;48.328;7.932;2023-05-09T01:40:22;99713.72;;;15.47;100.00
32083;BME280;18597;48.328;7.932;2023-05-09T01:42:56;99706.63;;;15.38;100.00
32083;BME280;18597;48.328;7.932;2023-05-09T01:45:24;99706.31;;;15.49;100.00
32083;BME280;18597;48.328;7.932;2023-05-09T01:47:52;99701.25;;;15.46;100.00
32083;BME280;18597;48.328;7.932;2023-05-09T01:50:19;99697.69;;;15.37;100.00
32083;BME280;18597;48.328;7.932;2023-05-09T01:52:48;99695.38;;;15.42;100.00
32083;BME280;18597;48.328;7.932;2023-05-09T01:55:17;99685.75;;;15.40;100.00
32083;BME280;18597;48.328;7.932;2023-05-09T01:57:45;99681.97;;;15.24;100.00
32083;BME280;18597;48.328;7.932;2023-05-09T02:00:11;99678.75;;;15.21;100.00
32083;BME280;18597;48.328;7.932;2023-05-09T02:02:39;99682.69;;;15.26;100.00
32083;BME280;18597;48.328;7.932;2023-05-09T02:05:09;99680.31;;;15.32;100.00
32083;BME280;18597;48.328;7.932;2023-05-09T02:07:36;99678.41;;;15.50;100.00
32083;BME280;18597;48.328;7.932;2023-05-09T02:10:04;99677.16;;;15.36;100.00
32083;BME280;18597;48.328;7.932;2023-05-09T02:12:32;99675.44;;;15.27;100.00
32083;BME280;18597;48.328;7.932;2023-05-09T02:14:58;99683.31;;;15.20;100.00
32083;BME280;18597;48.328;7.932;2023-05-09T02:17:24;99673.34;;;15.13;100.00
32083;BME280;18597;48.328;7.932;2023-05-09T02:19:50;99681.38;;;15.05;100.00
32083;BME280;18597;48.328;7.932;2023-05-09T02:22:16;99680.53;;;15.04;100.00
32083;BME280;18597;48.328;7.932;2023-05-09T02:24:43;99682.66;;;15.01;100.00
32083;BME280;18597;48.328;7.932;2023-05-09T02:27:11;99674.44;;;15.02;100.00
32083;BME280;18597;48.328;7.932;2023-05-09T02:29:46;99671.91;;;15.01;100.00
32083;BME280;18597;48.328;7.932;2023-05-09T02:32:16;99675.03;;;15.14;100.00
32083;BME280;18597;48.328;7.932;2023-05-09T02:34:44;99667.31;;;15.19;100.00
32083;BME280;18597;48.328;7.932;2023-05-09T02:37:12;99669.09;;;15.10;100.00
32083;BME280;18597;48.328;7.932;2023-05-09T02:39:38;99676.41;;;14.92;100.00
32083;BME280;18597;48.328;7.932;2023-05-09T02:42:09;99670.81;;;14.85;100.00
32083;BME280;18597;48.328;7.932;2023-05-09T02:44:35;99670.84;;;14.93;100.00
32083;BME280;18597;48.328;7.932;2023-05-09T02:47:02;99665.59;;;14.84;100.00
32083;BME280;18597;48.328;7.932;2023-05-09T02:49:28;99665.25;;;14.87;100.00
32083;BME280;18597;48.328;7.932;2023-05-09T02:51:54;99661.03;;;14.84;100.00
32083;BME280;18597;48.328;7.932;2023-05-09T02:54:20;99651.81;;;14.87;100.00
32083;BME280;18597;48.328;7.932;2023-05-09T02:56:46;99656.13;;;14.80;100.00
32083;BME280;18597;48.328;7.932;2023-05-09T02:59:12;99655.63;;;14.76;100.00
32083;BME280;18597;48.328;7.932;2023-05-09T03:01:38;99651.53;;;14.72;100.00
32083;BME280;18597;48.328;7.932;2023-05-09T03:04:04;99656.50;;;14.59;100.00
32083;BME280;18597;48.328;7.932;2023-05-09T03:06:29;99654.09;;;14.56;100.00
32083;BME280;18597;48.328;7.932;2023-05-09T03:08:55;99654.88;;;14.48;100.00
32083;BME280;18597;48.328;7.932;2023-05-09T03:11:22;99649.09;;;14.43;100.00
32083;BME280;18597;48.328;7.932;2023-05-09T03:13:48;99656.25;;;14.34;100.00
32083;BME280;18597;48.328;7.932;2023-05-09T03:16:16;99641.91;;;14.26;100.00
32083;BME280;18597;48.328;7.932;2023-05-09T03:18:42;99643.06;;;14.23;100.00
32083;BME280;18597;48.328;7.932;2023-05-09T03:21:08;99648.72;;;14.20;100.00
32083;BME280;18597;48.328;7.932;2023-05-09T03:23:34;99648.19;;;14.16;100.00
32083;BME280;18597;48.328;7.932;2023-05-09T03:26:00;99646.75;;;14.22;100.00
32083;BME280;18597;48.328;7.932;2023-05-09T03:28:27;99647.28;;;14.26;100.00
32083;BME280;18597;48.328;7.932;2023-05-09T03:30:53;99648.91;;;14.36;100.00
32083;BME280;18597;48.328;7.932;2023-05-09T03:33:19;99651.19;;;14.31;100.00
32083;BME280;18597;48.328;7.932;2023-05-09T03:35:45;99649.19;;;14.33;100.00
32083;BME280;18597;48.328;7.932;2023-05-09T03:38:11;99649.88;;;14.35;100.00
32083;BME280;18597;48.328;7.932;2023-05-09T03:40:37;99657.03;;;14.44;100.00
32083;BME280;18597;48.328;7.932;2023-05-09T03:43:03;99649.22;;;14.51;100.00
32083;BME280;18597;48.328;7.932;2023-05-09T03:45:29;99643.97;;;14.50;100.00
32083;BME280;18597;48.328;7.932;2023-05-09T03:47:55;99652.88;;;14.50;100.00
32083;BME280;18597;48.328;7.932;2023-05-09T03:50:20;99645.59;;;14.60;100.00
32083;BME280;18597;48.328;7.932;2023-05-09T03:52:46;99641.09;;;14.69;100.00
32083;BME280;18597;48.328;7.932;2023-05-09T03:55:12;99641.94;;;14.69;100.00
32083;BME280;18597;48.328;7.932;2023-05-09T03:57:38;99640.53;;;14.83;100.00
32083;BME280;18597;48.328;7.932;2023-05-09T04:00:05;99635.72;;;14.95;100.00
32083;BME280;18597;48.328;7.932;2023-05-09T04:02:32;99640.16;;;15.04;100.00
32083;BME280;18597;48.328;7.932;2023-05-09T04:04:59;99640.63;;;14.99;100.00
32083;BME280;18597;48.328;7.932;2023-05-09T04:07:26;99636.22;;;14.90;100.00
32083;BME280;18597;48.328;7.932;2023-05-09T04:09:54;99634.91;;;15.03;100.00
32083;BME280;18597;48.328;7.932;2023-05-09T04:12:21;99633.47;;;14.82;100.00
32083;BME280;18597;48.328;7.932;2023-05-09T04:14:47;99637.47;;;14.78;100.00
32083;BME280;18597;48.328;7.932;2023-05-09T04:17:12;99638.84;;;14.82;100.00
32083;BME280;18597;48.328;7.932;2023-05-09T04:19:38;99637.91;;;14.91;100.00
32083;BME280;18597;48.328;7.932;2023-05-09T04:22:04;99636.00;;;14.84;100.00
32083;BME280;18597;48.328;7.932;2023-05-09T04:24:30;99643.69;;;14.79;100.00
32083;BME280;18597;48.328;7.932;2023-05-09T04:26:56;99640.22;;;14.86;100.00
32083;BME280;18597;48.328;7.932;2023-05-09T04:29:22;99632.91;;;14.96;100.00
32083;BME280;18597;48.328;7.932;2023-05-09T04:31:48;99645.22;;;15.07;100.00
32083;BME280;18597;48.328;7.932;2023-05-09T04:34:13;99642.56;;;15.15;100.00
32083;BME280;18597;48.328;7.932;2023-05-09T04:36:39;99646.38;;;15.39;100.00
32083;BME280;18597;48.328;7.932;2023-05-09T04:39:05;99649.91;;;15.65;100.00
32083;BME280;18597;48.328;7.932;2023-05-09T04:41:32;99643.19;;;15.86;100.00
32083;BME280;18597;48.328;7.932;2023-05-09T04:43:58;99641.03;;;15.97;100.00
32083;BME280;18597;48.328;7.932;2023-05-09T04:46:24;99649.16;;;16.05;100.00
32083;BME280;18597;48.328;7.932;2023-05-09T04:48:50;99641.41;;;16.11;100.00
32083;BME280;18597;48.328;7.932;2023-05-09T04:51:16;99640.19;;;15.80;100.00
32083;BME280;18597;48.328;7.932;2023-05-09T04:53:41;99640.81;;;15.74;100.00
32083;BME280;18597;48.328;7.932;2023-05-09T04:56:07;99640.88;;;15.91;100.00
32083;BME280;18597;48.328;7.932;2023-05-09T04:58:33;99631.59;;;15.85;100.00
32083;BME280;18597;48.328;7.932;2023-05-09T05:01:03;99639.44;;;15.70;100.00
32083;BME280;18597;48.328;7.932;2023-05-09T05:03:31;99636.75;;;15.70;100.00
32083;BME280;18597;48.328;7.932;2023-05-09T05:05:57;99628.00;;;15.68;100.00
32083;BME280;18597;48.328;7.932;2023-05-09T05:08:23;99624.50;;;15.84;100.00
32083;BME280;18597;48.328;7.932;2023-05-09T05:10:49;99616.59;;;15.82;100.00
32083;BME280;18597;48.328;7.932;2023-05-09T05:13:16;99620.34;;;15.98;100.00
32083;BME280;18597;48.328;7.932;2023-05-09T05:15:42;99619.16;;;16.00;100.00
32083;BME280;18597;48.328;7.932;2023-05-09T05:18:07;99620.69;;;16.11;100.00
32083;BME280;18597;48.328;7.932;2023-05-09T05:20:33;99621.84;;;16.17;100.00
32083;BME280;18597;48.328;7.932;2023-05-09T05:23:00;99624.41;;;16.26;100.00
32083;BME280;18597;48.328;7.932;2023-05-09T05:25:26;99629.63;;;16.20;100.00
32083;BME280;18597;48.328;7.932;2023-05-09T05:27:52;99623.03;;;16.06;100.00
32083;BME280;18597;48.328;7.932;2023-05-09T05:30:18;99628.09;;;16.09;100.00
32083;BME280;18597;48.328;7.932;2023-05-09T05:32:46;99619.16;;;16.17;100.00
32083;BME280;18597;48.328;7.932;2023-05-09T05:35:12;99620.88;;;16.18;100.00
32083;BME280;18597;48.328;7.932;2023-05-09T05:37:39;99620.69;;;16.27;100.00
32083;BME280;18597;48.328;7.932;2023-05-09T05:40:06;99623.88;;;16.39;100.00
32083;BME280;18597;48.328;7.932;2023-05-09T05:42:33;99616.50;;;16.41;100.00
32083;BME280;18597;48.328;7.932;2023-05-09T05:44:59;99618.00;;;16.52;100.00
32083;BME280;18597;48.328;7.932;2023-05-09T05:47:32;99619.00;;;16.51;100.00
32083;BME280;18597;48.328;7.932;2023-05-09T05:49:59;99613.97;;;16.48;100.00
32083;BME280;18597;48.328;7.932;2023-05-09T05:52:25;99610.56;;;16.46;100.00
32083;BME280;18597;48.328;7.932;2023-05-09T05:54:53;99604.16;;;16.55;100.00
32083;BME280;18597;48.328;7.932;2023-05-09T05:57:19;99609.25;;;16.74;100.00
32083;BME280;18597;48.328;7.932;2023-05-09T05:59:49;99602.13;;;16.81;100.00
32083;BME280;18597;48.328;7.932;2023-05-09T06:02:16;99604.84;;;16.81;100.00
32083;BME280;18597;48.328;7.932;2023-05-09T06:04:43;99599.06;;;16.92;100.00
32083;BME280;18597;48.328;7.932;2023-05-09T06:07:10;99595.19;;;17.03;100.00
32083;BME280;18597;48.328;7.932;2023-05-09T06:09:37;99600.91;;;17.08;100.00
32083;BME280;18597;48.328;7.932;2023-05-09T06:12:03;99591.25;;;17.14;100.00
32083;BME280;18597;48.328;7.932;2023-05-09T06:14:29;99597.94;;;17.34;100.00
32083;BME280;18597;48.328;7.932;2023-05-09T06:16:55;99589.28;;;17.78;100.00
32083;BME280;18597;48.328;7.932;2023-05-09T06:19:21;99590.53;;;17.90;100.00
32083;BME280;18597;48.328;7.932;2023-05-09T06:21:46;99592.78;;;18.33;100.00
32083;BME280;18597;48.328;7.932;2023-05-09T06:24:12;99579.81;;;18.66;100.00
32083;BME280;18597;48.328;7.932;2023-05-09T06:26:38;99575.72;;;19.14;100.00
32083;BME280;18597;48.328;7.932;2023-05-09T06:29:04;99575.63;;;19.07;100.00
32083;BME280;18597;48.328;7.932;2023-05-09T06:31:32;99575.25;;;19.10;100.00
32083;BME280;18597;48.328;7.932;2023-05-09T06:34:04;99580.94;;;19.60;100.00
32083;BME280;18597;48.328;7.932;2023-05-09T06:36:30;99577.19;;;19.46;100.00
32083;BME280;18597;48.328;7.932;2023-05-09T06:38:57;99574.34;;;19.69;100.00
32083;BME280;18597;48.328;7.932;2023-05-09T06:41:23;99572.63;;;19.83;100.00
32083;BME280;18597;48.328;7.932;2023-05-09T06:43:48;99569.53;;;20.07;100.00
32083;BME280;18597;48.328;7.932;2023-05-09T06:46:14;99562.94;;;20.38;100.00
32083;BME280;18597;48.328;7.932;2023-05-09T06:48:40;99564.19;;;20.91;100.00
32083;BME280;18597;48.328;7.932;2023-05-09T06:51:06;99551.69;;;21.31;94.37
32083;BME280;18597;48.328;7.932;2023-05-09T06:53:32;99542.63;;;21.72;92.09
32083;BME280;18597;48.328;7.932;2023-05-09T06:55:58;99550.47;;;22.41;89.37
32083;BME280;18597;48.328;7.932;2023-05-09T06:58:24;99540.41;;;23.40;81.36
32083;BME280;18597;48.328;7.932;2023-05-09T07:00:52;99532.78;;;26.50;61.85
32083;BME280;18597;48.328;7.932;2023-05-09T07:03:18;99525.25;;;28.97;48.71
32083;BME280;18597;48.328;7.932;2023-05-09T07:05:44;99520.25;;;30.78;43.75
32083;BME280;18597;48.328;7.932;2023-05-09T07:08:10;99504.97;;;33.62;37.62
32083;BME280;18597;48.328;7.932;2023-05-09T07:10:36;99494.22;;;35.40;33.89
32083;BME280;18597;48.328;7.932;2023-05-09T07:13:03;99486.75;;;35.78;29.97
32083;BME280;18597;48.328;7.932;2023-05-09T07:15:29;99481.34;;;33.20;32.91
32083;BME280;18597;48.328;7.932;2023-05-09T07:17:55;99486.19;;;34.90;32.53
32083;BME280;18597;48.328;7.932;2023-05-09T07:20:21;99467.84;;;37.33;29.33
32083;BME280;18597;48.328;7.932;2023-05-09T07:22:46;99460.44;;;39.25;27.69
32083;BME280;18597;48.328;7.932;2023-05-09T07:25:12;99448.56;;;40.58;25.17
32083;BME280;18597;48.328;7.932;2023-05-09T07:27:38;99447.41;;;41.35;22.99
32083;BME280;18597;48.328;7.932;2023-05-09T07:30:05;99438.16;;;41.35;23.45
32083;BME280;18597;48.328;7.932;2023-05-09T07:32:31;99439.75;;;40.30;24.89
32083;BME280;18597;48.328;7.932;2023-05-09T07:34:57;99438.34;;;39.06;26.48
32083;BME280;18597;48.328;7.932;2023-05-09T07:37:23;99433.50;;;36.68;29.22
32083;BME280;18597;48.328;7.932;2023-05-09T07:39:52;99429.84;;;34.08;32.27
32083;BME280;18597;48.328;7.932;2023-05-09T07:42:18;99420.16;;;31.75;35.53
32083;BME280;18597;48.328;7.932;2023-05-09T07:44:44;99427.28;;;29.99;38.90
32083;BME280;18597;48.328;7.932;2023-05-09T07:47:10;99413.59;;;29.77;39.94
32083;BME280;18597;48.328;7.932;2023-05-09T07:49:36;99415.97;;;29.95;40.07
32083;BME280;18597;48.328;7.932;2023-05-09T07:52:02;99417.06;;;30.26;39.26
32083;BME280;18597;48.328;7.932;2023-05-09T07:54:27;99406.31;;;30.72;38.92
32083;BME280;18597;48.328;7.932;2023-05-09T07:56:53;99405.41;;;32.77;35.52
32083;BME280;18597;48.328;7.932;2023-05-09T07:59:19;99401.78;;;34.14;32.96
32083;BME280;18597;48.328;7.932;2023-05-09T08:01:45;99391.88;;;35.09;31.53
32083;BME280;18597;48.328;7.932;2023-05-09T08:04:11;99389.84;;;36.36;30.28
32083;BME280;18597;48.328;7.932;2023-05-09T08:06:37;99386.53;;;38.43;27.81
32083;BME280;18597;48.328;7.932;2023-05-09T08:09:03;99377.09;;;39.96;23.99
32083;BME280;18597;48.328;7.932;2023-05-09T08:11:32;99378.00;;;40.26;24.87
32083;BME280;18597;48.328;7.932;2023-05-09T08:13:58;99374.63;;;40.88;24.17
32083;BME280;18597;48.328;7.932;2023-05-09T08:16:24;99368.66;;;41.82;22.74
32083;BME280;18597;48.328;7.932;2023-05-09T08:18:50;99355.09;;;41.72;22.71
32083;BME280;18597;48.328;7.932;2023-05-09T08:21:16;99359.59;;;42.55;22.38
32083;BME280;18597;48.328;7.932;2023-05-09T08:23:42;99349.41;;;43.80;21.39
32083;BME280;18597;48.328;7.932;2023-05-09T08:26:08;99345.91;;;42.65;20.75
32083;BME280;18597;48.328;7.932;2023-05-09T08:28:33;99343.25;;;37.69;24.27
32083;BME280;18597;48.328;7.932;2023-05-09T08:30:59;99341.81;;;37.13;25.45
32083;BME280;18597;48.328;7.932;2023-05-09T08:33:25;99323.31;;;34.67;28.24
32083;BME280;18597;48.328;7.932;2023-05-09T08:35:52;99325.06;;;32.43;31.77
32083;BME280;18597;48.328;7.932;2023-05-09T08:38:19;99325.34;;;33.79;31.98
32083;BME280;18597;48.328;7.932;2023-05-09T08:40:45;99312.09;;;34.77;30.82
32083;BME280;18597;48.328;7.932;2023-05-09T08:43:13;99312.38;;;35.51;29.34
32083;BME280;18597;48.328;7.932;2023-05-09T08:45:58;99319.44;;;35.62;30.11
32083;BME280;18597;48.328;7.932;2023-05-09T08:48:25;99316.13;;;33.55;31.66
32083;BME280;18597;48.328;7.932;2023-05-09T08:50:54;99311.91;;;31.48;34.66
32083;BME280;18597;48.328;7.932;2023-05-09T08:53:21;99315.78;;;30.01;37.01
32083;BME280;18597;48.328;7.932;2023-05-09T08:55:49;99308.31;;;28.79;40.37
32083;BME280;18597;48.328;7.932;2023-05-09T08:58:15;99314.81;;;27.73;41.59
32083;BME280;18597;48.328;7.932;2023-05-09T09:00:44;99320.03;;;26.96;44.33
32083;BME280;18597;48.328;7.932;2023-05-09T09:03:11;99309.38;;;26.42;46.18
32083;BME280;18597;48.328;7.932;2023-05-09T09:05:38;99302.38;;;26.11;46.39
32083;BME280;18597;48.328;7.932;2023-05-09T09:08:07;99306.69;;;25.95;47.93
32083;BME280;18597;48.328;7.932;2023-05-09T09:10:33;99307.63;;;26.01;48.90
32083;BME280;18597;48.328;7.932;2023-05-09T09:13:02;99303.34;;;26.17;48.10
32083;BME280;18597;48.328;7.932;2023-05-09T09:15:34;99295.56;;;26.25;47.74
32083;BME280;18597;48.328;7.932;2023-05-09T09:18:11;99293.22;;;26.17;47.59
32083;BME280;18597;48.328;7.932;2023-05-09T09:20:47;99292.47;;;26.22;47.93
32083;BME280;18597;48.328;7.932;2023-05-09T09:23:19;99287.59;;;26.24;47.19
32083;BME280;18597;48.328;7.932;2023-05-09T09:25:46;99281.53;;;26.22;48.34
32083;BME280;18597;48.328;7.932;2023-05-09T09:28:12;99279.16;;;26.25;47.90
32083;BME280;18597;48.328;7.932;2023-05-09T09:30:47;99270.72;;;26.15;47.18
32083;BME280;18597;48.328;7.932;2023-05-09T09:33:25;99265.47;;;26.25;48.48
32083;BME280;18597;48.328;7.932;2023-05-09T09:35:54;99259.53;;;26.57;47.46
32083;BME280;18597;48.328;7.932;2023-05-09T09:38:21;99261.31;;;26.63;46.96
32083;BME280;18597;48.328;7.932;2023-05-09T09:40:57;99262.38;;;26.91;45.58
32083;BME280;18597;48.328;7.932;2023-05-09T09:43:28;99260.22;;;26.93;45.43
32083;BME280;18597;48.328;7.932;2023-05-09T09:45:54;99261.00;;;27.05;45.40
32083;BME280;18597;48.328;7.932;2023-05-09T09:48:27;99259.84;;;27.18;45.49
32083;BME280;18597;48.328;7.932;2023-05-09T09:50:55;99248.06;;;27.17;45.55
32083;BME280;18597;48.328;7.932;2023-05-09T09:53:21;99250.13;;;27.27;44.93
32083;BME280;18597;48.328;7.932;2023-05-09T09:55:50;99243.25;;;27.24;45.03
32083;BME280;18597;48.328;7.932;2023-05-09T09:58:18;99239.66;;;27.24;45.09
32083;BME280;18597;48.328;7.932;2023-05-09T10:00:46;99240.34;;;27.14;44.63
32083;BME280;18597;48.328;7.932;2023-05-09T10:03:15;99235.00;;;27.24;44.84
32083;BME280;18597;48.328;7.932;2023-05-09T10:05:42;99229.84;;;27.28;44.18
32083;BME280;18597;48.328;7.932;2023-05-09T10:08:07;99223.63;;;27.32;44.39
32083;BME280;18597;48.328;7.932;2023-05-09T10:10:38;99216.41;;;27.09;43.80
32083;BME280;18597;48.328;7.932;2023-05-09T10:13:08;99210.69;;;26.82;44.63
32083;BME280;18597;48.328;7.932;2023-05-09T10:15:35;99207.47;;;26.86;44.50
32083;BME280;18597;48.328;7.932;2023-05-09T10:18:02;99205.97;;;26.95;44.85
32083;BME280;18597;48.328;7.932;2023-05-09T10:20:30;99199.91;;;27.43;44.35
32083;BME280;18597;48.328;7.932;2023-05-09T10:23:00;99207.75;;;27.90;42.39
32083;BME280;18597;48.328;7.932;2023-05-09T10:25:37;99198.22;;;28.41;41.61
32083;BME280;18597;48.328;7.932;2023-05-09T10:28:11;99187.13;;;28.85;40.25
32083;BME280;18597;48.328;7.932;2023-05-09T10:30:55;99175.72;;;28.98;40.22
32083;BME280;18597;48.328;7.932;2023-05-09T10:33:30;99176.28;;;29.38;39.89
32083;BME280;18597;48.328;7.932;2023-05-09T10:35:57;99172.75;;;29.90;39.13
32083;BME280;18597;48.328;7.932;2023-05-09T10:38:25;99166.31;;;29.64;38.20
32083;BME280;18597;48.328;7.932;2023-05-09T10:40:51;99158.53;;;29.50;38.12
32083;BME280;18597;48.328;7.932;2023-05-09T10:43:18;99162.97;;;29.56;38.61
32083;BME280;18597;48.328;7.932;2023-05-09T10:45:46;99151.03;;;29.98;38.43
32083;BME280;18597;48.328;7.932;2023-05-09T10:48:12;99156.94;;;30.17;37.56
32083;BME280;18597;48.328;7.932;2023-05-09T10:50:38;99147.25;;;30.15;37.30
32083;BME280;18597;48.328;7.932;2023-05-09T10:53:08;99151.41;;;30.22;36.18
32083;BME280;18597;48.328;7.932;2023-05-09T10:55:57;99147.88;;;30.37;37.47
32083;BME280;18597;48.328;7.932;2023-05-09T10:58:28;99140.22;;;30.54;36.92
32083;BME280;18597;48.328;7.932;2023-05-09T11:00:57;99134.91;;;30.37;36.34
32083;BME280;18597;48.328;7.932;2023-05-09T11:03:24;99133.72;;;30.03;36.03
32083;BME280;18597;48.328;7.932;2023-05-09T11:05:53;99129.81;;;29.89;37.41
32083;BME280;18597;48.328;7.932;2023-05-09T11:08:29;99121.31;;;29.43;37.39
32083;BME280;18597;48.328;7.932;2023-05-09T11:10:57;99115.44;;;29.76;36.92
32083;BME280;18597;48.328;7.932;2023-05-09T11:13:30;99112.84;;;30.12;36.62
32083;BME280;18597;48.328;7.932;2023-05-09T11:16:07;99093.34;;;30.54;35.38
32083;BME280;18597;48.328;7.932;2023-05-09T11:18:33;99095.03;;;30.86;35.15
32083;BME280;18597;48.328;7.932;2023-05-09T11:21:07;99087.28;;;31.08;35.01
32083;BME280;18597;48.328;7.932;2023-05-09T11:23:34;99086.16;;;31.04;33.60
32083;BME280;18597;48.328;7.932;2023-05-09T11:26:06;99083.47;;;30.69;35.57
32083;BME280;18597;48.328;7.932;2023-05-09T11:28:36;99080.59;;;30.13;35.70
32083;BME280;18597;48.328;7.932;2023-05-09T11:31:11;99077.03;;;30.17;36.58
32083;BME280;18597;48.328;7.932;2023-05-09T11:33:38;99069.31;;;30.14;36.16
32083;BME280;18597;48.328;7.932;2023-05-09T11:36:27;99071.16;;;29.98;36.58
32083;BME280;18597;48.328;7.932;2023-05-09T11:39:10;99057.31;;;29.63;36.67
32083;BME280;18597;48.328;7.932;2023-05-09T11:41:43;99054.50;;;29.05;38.12
32083;BME280;18597;48.328;7.932;2023-05-09T11:44:26;99051.63;;;28.53;38.45
32083;BME280;18597;48.328;7.932;2023-05-09T11:46:52;99041.03;;;28.66;39.35
32083;BME280;18597;48.328;7.932;2023-05-09T11:49:18;99036.41;;;28.72;38.90
32083;BME280;18597;48.328;7.932;2023-05-09T11:51:45;99033.09;;;28.11;39.26
32083;BME280;18597;48.328;7.932;2023-05-09T11:54:10;99036.28;;;27.98;39.46
32083;BME280;18597;48.328;7.932;2023-05-09T11:56:39;99023.03;;;28.22;39.02
32083;BME280;18597;48.328;7.932;2023-05-09T11:59:06;99024.59;;;28.39;39.09
32083;BME280;18597;48.328;7.932;2023-05-09T12:01:33;99021.25;;;28.64;37.76
32083;BME280;18597;48.328;7.932;2023-05-09T12:04:01;99011.91;;;28.65;38.08
32083;BME280;18597;48.328;7.932;2023-05-09T12:06:27;99009.38;;;28.64;36.52
32083;BME280;18597;48.328;7.932;2023-05-09T12:08:54;99004.50;;;28.71;37.35
32083;BME280;18597;48.328;7.932;2023-05-09T12:11:21;99003.06;;;28.63;36.96
32083;BME280;18597;48.328;7.932;2023-05-09T12:13:50;99006.41;;;28.70;37.56
32083;BME280;18597;48.328;7.932;2023-05-09T12:16:18;98995.38;;;29.02;37.85
32083;BME280;18597;48.328;7.932;2023-05-09T12:18:48;98995.19;;;29.19;37.17
32083;BME280;18597;48.328;7.932;2023-05-09T12:21:15;98996.97;;;28.93;37.16
32083;BME280;18597;48.328;7.932;2023-05-09T12:23:41;98998.38;;;28.96;36.54
32083;BME280;18597;48.328;7.932;2023-05-09T12:26:07;98993.78;;;29.17;35.46
32083;BME280;18597;48.328;7.932;2023-05-09T12:28:33;98985.69;;;29.47;35.68
32083;BME280;18597;48.328;7.932;2023-05-09T12:31:00;98982.94;;;29.52;35.57
32083;BME280;18597;48.328;7.932;2023-05-09T12:33:26;98985.19;;;29.61;36.22
32083;BME280;18597;48.328;7.932;2023-05-09T12:36:11;98981.34;;;29.67;35.46
32083;BME280;18597;48.328;7.932;2023-05-09T12:38:38;98974.25;;;30.01;34.19
32083;BME280;18597;48.328;7.932;2023-05-09T12:41:08;98969.59;;;30.32;34.29
32083;BME280;18597;48.328;7.932;2023-05-09T12:43:37;98964.06;;;30.58;34.01
32083;BME280;18597;48.328;7.932;2023-05-09T12:46:04;98956.59;;;30.58;34.16
32083;BME280;18597;48.328;7.932;2023-05-09T12:48:36;98949.72;;;30.66;34.54
32083;BME280;18597;48.328;7.932;2023-05-09T12:51:04;98951.09;;;30.58;34.22
32083;BME280;18597;48.328;7.932;2023-05-09T12:53:30;98948.09;;;30.55;34.39
32083;BME280;18597;48.328;7.932;2023-05-09T12:56:13;98940.34;;;30.52;34.63
32083;BME280;18597;48.328;7.932;2023-05-09T12:58:46;98942.00;;;30.07;35.20
32083;BME280;18597;48.328;7.932;2023-05-09T13:01:13;98946.97;;;29.95;35.47
32083;BME280;18597;48.328;7.932;2023-05-09T13:03:39;98935.09;;;29.64;34.98
32083;BME280;18597;48.328;7.932;2023-05-09T13:06:12;98937.22;;;29.46;36.10